Strona główna
METAR-TAF:

METAR-TAF

Lotnisko :

Florianópolis, Santa Catarina, Brazylia

Szerokość geograficzna: 27-40S, Długość geograficzna: 048-33W, wysokość: 5 m

Aktualna obserwacja pogody

Raport powstał 48 minut temu, godzina 18:00 UTC
Wiatr 9 kt od północ
Temperatura 25°C
Wilgotność 69%
Ciśnienie 1016 hPa
Widzialność 10 km lub więcej
Mało chmury na wysokości 3000 ft

METAR: SBFL 181800Z 01009KT 9999 FEW030 25/19 Q1016

czas: 15:48 (18:48 UTC)

Prognoza

Raport powstał 3 godziny i 18 minut temu, godzina 15:30 UTC
Prognoza ważna od 18 godzina 18 UTC do 19 godzina 18 UTC
Wiatr 10 kt od północ
Widzialność 10 km lub więcej
Brak chmur poniżej 1500 m i brak chmur cumulonimbus
Stopniowe zmiany
od 18 godzina 20 UTC do 18 godzina 22 UTC
Wiatr 5 kt od północny zachód
Widzialność 10 km lub więcej
Mało chmury na wysokości 2000 ft

TAF: SBFL 181530Z 1818/1918 35010KT CAVOK TX27/1818Z TN20/1908Z BECMG 1820/1822 32005KT 9999 FEW020 RMK PCO

Obserwacja i prognoza pogody dla ponad 4000 lotnisk (raport METAR i TAF).

Dostępne stacje oznaczono żółtymi i czerwonymi punktami na mapie.

Najedź kursorem aby zobaczyć nazwę stacji.

Kliknij aby zobaczyć obserwacje i prognozy pogody.

Aby zmienić mapę: kliknij na zielony przycisk z czarnym krzyżykiem, aby powiększyć; na zielony przycisk z myślnikiem, aby pomniejszyć; na zielone strzałki, aby przejść do map sąsiednich.


METAR-TAF: